sensor_id;sensor_type;location;lat;lon;timestamp;pressure;altitude;pressure_sealevel;temperature;humidity
56420;BME280;42323;52.170;7.538;2022-11-20T00:01:28;100967.97;;;-4.77;89.21
56420;BME280;42323;52.170;7.538;2022-11-20T00:03:56;100956.38;;;-4.84;88.22
56420;BME280;42323;52.170;7.538;2022-11-20T00:06:25;100961.44;;;-4.83;88.62
56420;BME280;42323;52.170;7.538;2022-11-20T00:08:54;100949.81;;;-4.90;88.62
56420;BME280;42323;52.170;7.538;2022-11-20T00:11:23;100949.81;;;-4.90;88.91
56420;BME280;42323;52.170;7.538;2022-11-20T00:13:53;100947.19;;;-4.88;88.60
56420;BME280;42323;52.170;7.538;2022-11-20T00:16:23;100954.50;;;-4.81;88.78
56420;BME280;42323;52.170;7.538;2022-11-20T00:18:50;100947.19;;;-4.88;88.57
56420;BME280;42323;52.170;7.538;2022-11-20T00:21:25;100958.94;;;-4.84;88.66
56420;BME280;42323;52.170;7.538;2022-11-20T00:23:54;100955.63;;;-4.86;88.62
56420;BME280;42323;52.170;7.538;2022-11-20T00:26:22;100959.97;;;-4.88;89.00
56420;BME280;42323;52.170;7.538;2022-11-20T00:28:54;100959.13;;;-4.89;89.39
56420;BME280;42323;52.170;7.538;2022-11-20T00:31:22;100937.47;;;-4.99;88.98
56420;BME280;42323;52.170;7.538;2022-11-20T00:33:49;100947.41;;;-4.93;88.85
56420;BME280;42323;52.170;7.538;2022-11-20T00:36:21;100942.66;;;-5.00;88.75
56420;BME280;42323;52.170;7.538;2022-11-20T00:38:55;100936.69;;;-5.01;88.63
56420;BME280;42323;52.170;7.538;2022-11-20T00:41:23;100945.41;;;-5.05;89.26
56420;BME280;42323;52.170;7.538;2022-11-20T00:43:55;100960.38;;;-4.97;89.52
56420;BME280;42323;52.170;7.538;2022-11-20T00:46:23;100961.38;;;-5.00;89.07
56420;BME280;42323;52.170;7.538;2022-11-20T00:48:51;100952.44;;;-5.10;88.63
56420;BME280;42323;52.170;7.538;2022-11-20T00:51:20;100950.03;;;-5.13;89.09
56420;BME280;42323;52.170;7.538;2022-11-20T00:53:46;100959.88;;;-5.06;88.92
56420;BME280;42323;52.170;7.538;2022-11-20T00:56:15;100957.22;;;-5.02;88.90
56420;BME280;42323;52.170;7.538;2022-11-20T00:58:45;100948.16;;;-5.10;89.72
56420;BME280;42323;52.170;7.538;2022-11-20T01:01:21;100946.78;;;-5.17;88.97
56420;BME280;42323;52.170;7.538;2022-11-20T01:03:50;100957.50;;;-5.09;88.56
56420;BME280;42323;52.170;7.538;2022-11-20T01:06:43;100948.31;;;-5.13;89.40
56420;BME280;42323;52.170;7.538;2022-11-20T01:09:14;100941.38;;;-5.11;89.45
56420;BME280;42323;52.170;7.538;2022-11-20T01:11:43;100947.59;;;-5.16;88.82
56420;BME280;42323;52.170;7.538;2022-11-20T01:14:14;100952.84;;;-5.19;89.05
56420;BME280;42323;52.170;7.538;2022-11-20T01:16:43;100938.72;;;-5.26;88.93
56420;BME280;42323;52.170;7.538;2022-11-20T01:19:13;100942.97;;;-5.27;89.09
56420;BME280;42323;52.170;7.538;2022-11-20T01:21:48;100953.75;;;-5.20;89.47
56420;BME280;42323;52.170;7.538;2022-11-20T01:24:16;100946.28;;;-5.25;89.30
56420;BME280;42323;52.170;7.538;2022-11-20T01:26:44;100941.44;;;-5.31;89.12
56420;BME280;42323;52.170;7.538;2022-11-20T01:29:17;100943.03;;;-5.28;89.66
56420;BME280;42323;52.170;7.538;2022-11-20T01:31:45;100933.66;;;-5.28;89.76
56420;BME280;42323;52.170;7.538;2022-11-20T01:34:14;100921.88;;;-5.31;89.62
56420;BME280;42323;52.170;7.538;2022-11-20T01:36:42;100926.75;;;-5.26;88.85
56420;BME280;42323;52.170;7.538;2022-11-20T01:39:13;100926.91;;;-5.29;89.91
56420;BME280;42323;52.170;7.538;2022-11-20T01:41:41;100911.00;;;-5.36;89.88
56420;BME280;42323;52.170;7.538;2022-11-20T01:44:53;100921.59;;;-5.24;89.89
56420;BME280;42323;52.170;7.538;2022-11-20T01:47:37;100902.53;;;-5.36;88.93
56420;BME280;42323;52.170;7.538;2022-11-20T01:50:12;100913.22;;;-5.28;89.28
56420;BME280;42323;52.170;7.538;2022-11-20T01:52:43;100909.84;;;-5.28;89.59
56420;BME280;42323;52.170;7.538;2022-11-20T01:55:20;100910.06;;;-5.33;89.13
56420;BME280;42323;52.170;7.538;2022-11-20T01:57:48;100900.47;;;-5.28;89.83
56420;BME280;42323;52.170;7.538;2022-11-20T02:00:17;100905.50;;;-5.26;89.56
56420;BME280;42323;52.170;7.538;2022-11-20T02:02:49;100893.81;;;-5.32;89.58
56420;BME280;42323;52.170;7.538;2022-11-20T02:05:23;100883.78;;;-5.35;89.74
56420;BME280;42323;52.170;7.538;2022-11-20T02:07:54;100879.53;;;-5.36;90.11
56420;BME280;42323;52.170;7.538;2022-11-20T02:31:47;100886.16;;;-5.51;89.06
56420;BME280;42323;52.170;7.538;2022-11-20T02:34:14;100885.75;;;-5.61;89.17
56420;BME280;42323;52.170;7.538;2022-11-20T02:36:41;100893.13;;;-5.55;89.21
56420;BME280;42323;52.170;7.538;2022-11-20T02:39:09;100873.03;;;-5.62;89.72
56420;BME280;42323;52.170;7.538;2022-11-20T02:41:38;100881.31;;;-5.57;89.73
56420;BME280;42323;52.170;7.538;2022-11-20T02:44:05;100889.75;;;-5.55;89.14
56420;BME280;42323;52.170;7.538;2022-11-20T02:46:33;100883.03;;;-5.58;89.79
56420;BME280;42323;52.170;7.538;2022-11-20T02:49:03;100870.84;;;-5.70;88.86
56420;BME280;42323;52.170;7.538;2022-11-20T02:51:31;100888.53;;;-5.67;89.70
56420;BME280;42323;52.170;7.538;2022-11-20T02:53:58;100885.25;;;-5.69;89.11
56420;BME280;42323;52.170;7.538;2022-11-20T02:56:25;100878.81;;;-5.77;89.38
56420;BME280;42323;52.170;7.538;2022-11-20T02:58:52;100882.91;;;-5.73;89.02
56420;BME280;42323;52.170;7.538;2022-11-20T03:01:19;100880.59;;;-5.80;88.98
56420;BME280;42323;52.170;7.538;2022-11-20T03:03:46;100887.28;;;-5.77;89.21
56420;BME280;42323;52.170;7.538;2022-11-20T03:06:16;100873.84;;;-5.81;89.70
56420;BME280;42323;52.170;7.538;2022-11-20T03:08:43;100872.88;;;-5.78;89.41
56420;BME280;42323;52.170;7.538;2022-11-20T03:32:39;100806.84;;;-6.23;90.13
56420;BME280;42323;52.170;7.538;2022-11-20T03:35:07;100797.47;;;-6.23;89.83
56420;BME280;42323;52.170;7.538;2022-11-20T03:42:51;100805.53;;;-6.13;89.80
56420;BME280;42323;52.170;7.538;2022-11-20T03:45:18;100797.97;;;-6.15;90.03
56420;BME280;42323;52.170;7.538;2022-11-20T03:47:45;100831.84;;;-5.92;89.19
56420;BME280;42323;52.170;7.538;2022-11-20T04:52:06;100834.25;;;-6.08;89.49
56420;BME280;42323;52.170;7.538;2022-11-20T04:54:33;100822.84;;;-6.20;89.87
56420;BME280;42323;52.170;7.538;2022-11-20T04:56:59;100824.28;;;-6.14;89.65
56420;BME280;42323;52.170;7.538;2022-11-20T04:59:26;100815.25;;;-6.21;89.30
56420;BME280;42323;52.170;7.538;2022-11-20T05:01:53;100819.66;;;-6.25;89.12
56420;BME280;42323;52.170;7.538;2022-11-20T05:04:20;100808.16;;;-6.35;89.22
56420;BME280;42323;52.170;7.538;2022-11-20T05:06:46;100831.50;;;-6.24;89.33
56420;BME280;42323;52.170;7.538;2022-11-20T05:09:13;100826.53;;;-6.27;89.33
56420;BME280;42323;52.170;7.538;2022-11-20T05:11:40;100819.06;;;-6.32;89.25
56420;BME280;42323;52.170;7.538;2022-11-20T05:14:07;100817.41;;;-6.33;89.44
56420;BME280;42323;52.170;7.538;2022-11-20T05:16:34;100824.78;;;-6.26;89.33
56420;BME280;42323;52.170;7.538;2022-11-20T05:19:02;100830.69;;;-6.24;89.57
56420;BME280;42323;52.170;7.538;2022-11-20T05:21:30;100816.59;;;-6.33;89.69
56420;BME280;42323;52.170;7.538;2022-11-20T05:23:57;100820.88;;;-6.34;90.25
56420;BME280;42323;52.170;7.538;2022-11-20T05:26:24;100800.09;;;-6.45;89.47
56420;BME280;42323;52.170;7.538;2022-11-20T05:28:51;100818.13;;;-6.29;89.29
56420;BME280;42323;52.170;7.538;2022-11-20T07:51:34;100803.38;;;-6.02;89.53
56420;BME280;42323;52.170;7.538;2022-11-20T07:54:01;100792.34;;;-6.02;89.48
56420;BME280;42323;52.170;7.538;2022-11-20T07:56:28;100795.31;;;-5.93;89.70
56420;BME280;42323;52.170;7.538;2022-11-20T07:58:55;100799.28;;;-5.87;90.00
56420;BME280;42323;52.170;7.538;2022-11-20T08:01:21;100790.69;;;-5.85;90.18
56420;BME280;42323;52.170;7.538;2022-11-20T08:03:48;100796.19;;;-5.75;89.33
56420;BME280;42323;52.170;7.538;2022-11-20T08:06:15;100791.09;;;-5.75;89.83
56420;BME280;42323;52.170;7.538;2022-11-20T08:08:42;100795.88;;;-5.67;89.61
56420;BME280;42323;52.170;7.538;2022-11-20T08:21:42;100749.38;;;-5.55;89.99
56420;BME280;42323;52.170;7.538;2022-11-20T08:24:14;100738.66;;;-5.44;89.86
56420;BME280;42323;52.170;7.538;2022-11-20T08:26:42;100781.06;;;-5.04;90.21
56420;BME280;42323;52.170;7.538;2022-11-20T08:29:09;100759.41;;;-4.97;89.67
56420;BME280;42323;52.170;7.538;2022-11-20T08:31:36;100785.38;;;-4.70;89.45
56420;BME280;42323;52.170;7.538;2022-11-20T08:34:02;100786.72;;;-4.63;89.19
56420;BME280;42323;52.170;7.538;2022-11-20T08:36:35;100787.16;;;-4.55;89.41
56420;BME280;42323;52.170;7.538;2022-11-20T08:39:02;100803.50;;;-4.40;90.04
56420;BME280;42323;52.170;7.538;2022-11-20T08:41:30;100808.63;;;-4.24;89.43
56420;BME280;42323;52.170;7.538;2022-11-20T08:44:04;100804.66;;;-4.12;89.46
56420;BME280;42323;52.170;7.538;2022-11-20T08:46:38;100800.72;;;-4.02;90.16
56420;BME280;42323;52.170;7.538;2022-11-20T08:49:06;100811.91;;;-3.87;90.41
56420;BME280;42323;52.170;7.538;2022-11-20T09:40:57;100784.81;;;-1.65;91.70
56420;BME280;42323;52.170;7.538;2022-11-20T09:43:58;100779.09;;;-1.56;91.83
56420;BME280;42323;52.170;7.538;2022-11-20T10:32:37;100725.09;;;0.02;89.17
56420;BME280;42323;52.170;7.538;2022-11-20T10:35:31;100727.19;;;0.58;88.96
56420;BME280;42323;52.170;7.538;2022-11-20T10:38:02;100714.34;;;0.69;87.46
56420;BME280;42323;52.170;7.538;2022-11-20T10:40:43;100719.09;;;0.75;87.16
56420;BME280;42323;52.170;7.538;2022-11-20T10:45:54;100730.09;;;0.77;87.16
56420;BME280;42323;52.170;7.538;2022-11-20T10:48:24;100722.16;;;0.80;86.64
56420;BME280;42323;52.170;7.538;2022-11-20T10:56:34;100723.13;;;0.90;86.27
56420;BME280;42323;52.170;7.538;2022-11-20T11:01:50;100692.53;;;1.55;84.25
56420;BME280;42323;52.170;7.538;2022-11-20T11:07:13;100708.75;;;2.01;83.54
56420;BME280;42323;52.170;7.538;2022-11-20T11:09:53;100696.91;;;2.86;81.01
56420;BME280;42323;52.170;7.538;2022-11-20T11:25:56;100667.31;;;1.36;82.84
56420;BME280;42323;52.170;7.538;2022-11-20T11:28:25;100678.91;;;1.30;83.40
56420;BME280;42323;52.170;7.538;2022-11-20T12:14:36;100611.09;;;9.31;60.54
56420;BME280;42323;52.170;7.538;2022-11-20T12:17:04;100589.59;;;10.75;55.11
56420;BME280;42323;52.170;7.538;2022-11-20T12:19:33;100575.38;;;11.22;52.27
56420;BME280;42323;52.170;7.538;2022-11-20T12:24:44;100595.22;;;11.75;50.39
56420;BME280;42323;52.170;7.538;2022-11-20T12:30:12;100524.34;;;13.02;47.41
56420;BME280;42323;52.170;7.538;2022-11-20T12:33:06;100559.19;;;13.46;45.74
56420;BME280;42323;52.170;7.538;2022-11-20T12:52:56;100558.81;;;11.21;50.79
56420;BME280;42323;52.170;7.538;2022-11-20T13:07:12;100556.19;;;7.51;50.64
56420;BME280;42323;52.170;7.538;2022-11-20T13:09:44;100565.88;;;6.73;50.98
56420;BME280;42323;52.170;7.538;2022-11-20T13:17:51;100548.41;;;7.17;50.89
56420;BME280;42323;52.170;7.538;2022-11-20T13:20:21;100523.50;;;6.63;51.45
56420;BME280;42323;52.170;7.538;2022-11-20T13:22:50;100431.13;;;5.53;52.84
56420;BME280;42323;52.170;7.538;2022-11-20T13:25:38;100488.19;;;5.17;54.67
56420;BME280;42323;52.170;7.538;2022-11-20T13:30:36;100461.88;;;4.09;58.26
56420;BME280;42323;52.170;7.538;2022-11-20T13:33:07;100493.16;;;3.97;60.08
56420;BME280;42323;52.170;7.538;2022-11-20T13:35:40;100466.94;;;3.62;61.10
56420;BME280;42323;52.170;7.538;2022-11-20T13:38:09;100474.28;;;3.47;62.25
56420;BME280;42323;52.170;7.538;2022-11-20T13:40:56;100488.06;;;3.47;63.91
56420;BME280;42323;52.170;7.538;2022-11-20T13:48:45;100446.50;;;3.88;67.40
56420;BME280;42323;52.170;7.538;2022-11-20T13:54:17;100474.75;;;4.67;67.90
56420;BME280;42323;52.170;7.538;2022-11-20T13:57:13;100471.94;;;4.31;69.54
56420;BME280;42323;52.170;7.538;2022-11-20T14:02:28;100452.78;;;3.85;71.29
56420;BME280;42323;52.170;7.538;2022-11-20T14:05:00;100450.88;;;3.68;72.40
56420;BME280;42323;52.170;7.538;2022-11-20T14:07:39;100450.59;;;3.51;72.78
56420;BME280;42323;52.170;7.538;2022-11-20T14:10:24;100446.72;;;3.26;74.20
56420;BME280;42323;52.170;7.538;2022-11-20T14:12:57;100454.31;;;3.09;74.72
56420;BME280;42323;52.170;7.538;2022-11-20T14:15:32;100458.34;;;2.92;75.79
56420;BME280;42323;52.170;7.538;2022-11-20T14:18:14;100438.78;;;2.68;75.95
56420;BME280;42323;52.170;7.538;2022-11-20T14:20:41;100431.88;;;2.48;76.97
56420;BME280;42323;52.170;7.538;2022-11-20T14:23:10;100441.91;;;2.41;77.02
56420;BME280;42323;52.170;7.538;2022-11-20T14:25:37;100440.47;;;2.28;78.47
56420;BME280;42323;52.170;7.538;2022-11-20T14:28:21;100438.78;;;2.17;78.77
56420;BME280;42323;52.170;7.538;2022-11-20T14:30:50;100408.47;;;1.98;79.62
56420;BME280;42323;52.170;7.538;2022-11-20T14:33:17;100417.16;;;1.97;79.40
56420;BME280;42323;52.170;7.538;2022-11-20T14:35:46;100411.81;;;1.89;79.77
56420;BME280;42323;52.170;7.538;2022-11-20T14:38:15;100417.09;;;1.87;80.56
56420;BME280;42323;52.170;7.538;2022-11-20T14:40:43;100420.75;;;1.85;80.75
56420;BME280;42323;52.170;7.538;2022-11-20T14:43:26;100432.75;;;1.86;80.87
56420;BME280;42323;52.170;7.538;2022-11-20T14:46:00;100424.22;;;1.74;81.29
56420;BME280;42323;52.170;7.538;2022-11-20T14:48:32;100415.31;;;1.67;81.72
56420;BME280;42323;52.170;7.538;2022-11-20T14:51:00;100404.09;;;1.57;81.54
56420;BME280;42323;52.170;7.538;2022-11-20T14:53:27;100425.88;;;1.64;81.51
56420;BME280;42323;52.170;7.538;2022-11-20T14:55:56;100431.75;;;1.66;82.35
56420;BME280;42323;52.170;7.538;2022-11-20T14:58:29;100396.97;;;1.49;82.19
56420;BME280;42323;52.170;7.538;2022-11-20T15:01:14;100418.97;;;1.64;82.55
56420;BME280;42323;52.170;7.538;2022-11-20T15:03:46;100366.28;;;1.35;82.72
56420;BME280;42323;52.170;7.538;2022-11-20T15:06:26;100405.34;;;1.62;82.33
56420;BME280;42323;52.170;7.538;2022-11-20T15:08:53;100400.44;;;1.59;82.75
56420;BME280;42323;52.170;7.538;2022-11-20T15:11:33;100394.34;;;1.60;83.00
56420;BME280;42323;52.170;7.538;2022-11-20T15:14:03;100381.09;;;1.54;82.90
56420;BME280;42323;52.170;7.538;2022-11-20T15:21:48;100361.22;;;1.33;83.67
56420;BME280;42323;52.170;7.538;2022-11-20T15:24:15;100364.09;;;1.30;83.57
56420;BME280;42323;52.170;7.538;2022-11-20T15:26:42;100346.41;;;1.14;83.55
56420;BME280;42323;52.170;7.538;2022-11-20T15:29:14;100364.09;;;1.30;83.89
56420;BME280;42323;52.170;7.538;2022-11-20T15:31:44;100360.78;;;1.28;83.76
56420;BME280;42323;52.170;7.538;2022-11-20T15:34:12;100359.84;;;1.29;84.04
56420;BME280;42323;52.170;7.538;2022-11-20T15:36:39;100357.97;;;1.31;84.09
56420;BME280;42323;52.170;7.538;2022-11-20T15:39:07;100348.13;;;1.25;83.69
56420;BME280;42323;52.170;7.538;2022-11-20T15:41:34;100344.03;;;1.22;84.21
56420;BME280;42323;52.170;7.538;2022-11-20T15:44:02;100334.66;;;1.21;84.66
56420;BME280;42323;52.170;7.538;2022-11-20T15:46:31;100335.22;;;1.25;84.05
56420;BME280;42323;52.170;7.538;2022-11-20T15:49:05;100344.81;;;1.34;83.85
56420;BME280;42323;52.170;7.538;2022-11-20T15:51:40;100330.97;;;1.35;84.17
56420;BME280;42323;52.170;7.538;2022-11-20T15:56:38;100330.25;;;1.33;83.91
56420;BME280;42323;52.170;7.538;2022-11-20T15:59:05;100333.56;;;1.35;83.28
56420;BME280;42323;52.170;7.538;2022-11-20T16:01:32;100320.22;;;1.30;83.69
56420;BME280;42323;52.170;7.538;2022-11-20T16:03:59;100294.78;;;1.25;83.66
56420;BME280;42323;52.170;7.538;2022-11-20T16:06:26;100291.13;;;1.28;84.12
56420;BME280;42323;52.170;7.538;2022-11-20T16:08:54;100273.22;;;1.15;84.15
56420;BME280;42323;52.170;7.538;2022-11-20T16:11:23;100199.13;;;0.64;83.45
56420;BME280;42323;52.170;7.538;2022-11-20T16:13:51;100236.19;;;0.84;83.95
56420;BME280;42323;52.170;7.538;2022-11-20T16:16:37;100233.84;;;0.81;83.57
56420;BME280;42323;52.170;7.538;2022-11-20T16:19:05;100230.03;;;0.75;83.83
56420;BME280;42323;52.170;7.538;2022-11-20T16:21:36;100262.19;;;0.92;83.95
56420;BME280;42323;52.170;7.538;2022-11-20T16:24:14;100228.63;;;0.71;84.10
56420;BME280;42323;52.170;7.538;2022-11-20T16:26:46;100242.88;;;0.87;83.94
56420;BME280;42323;52.170;7.538;2022-11-20T16:29:15;100276.56;;;1.06;84.58
56420;BME280;42323;52.170;7.538;2022-11-20T16:31:42;100276.31;;;1.09;84.39
56420;BME280;42323;52.170;7.538;2022-11-20T16:34:08;100272.22;;;1.07;84.08
56420;BME280;42323;52.170;7.538;2022-11-20T16:36:42;100277.81;;;1.12;84.33
56420;BME280;42323;52.170;7.538;2022-11-20T16:39:10;100287.06;;;1.14;83.93
56420;BME280;42323;52.170;7.538;2022-11-20T16:41:38;100280.28;;;1.13;83.73
56420;BME280;42323;52.170;7.538;2022-11-20T16:44:09;100288.47;;;1.18;83.83
56420;BME280;42323;52.170;7.538;2022-11-20T16:46:39;100253.94;;;0.98;83.77
56420;BME280;42323;52.170;7.538;2022-11-20T16:49:11;100270.22;;;1.10;84.02
56420;BME280;42323;52.170;7.538;2022-11-20T16:51:38;100260.13;;;1.07;84.05
56420;BME280;42323;52.170;7.538;2022-11-20T16:54:12;100262.34;;;1.12;84.53
56420;BME280;42323;52.170;7.538;2022-11-20T16:56:46;100260.69;;;1.11;84.27
56420;BME280;42323;52.170;7.538;2022-11-20T16:59:13;100262.91;;;1.15;84.10
56420;BME280;42323;52.170;7.538;2022-11-20T17:01:43;100232.41;;;0.99;83.94
56420;BME280;42323;52.170;7.538;2022-11-20T17:04:11;100232.25;;;1.01;84.62
56420;BME280;42323;52.170;7.538;2022-11-20T17:06:41;100256.56;;;1.19;84.23
56420;BME280;42323;52.170;7.538;2022-11-20T17:09:10;100223.72;;;1.00;84.17
56420;BME280;42323;52.170;7.538;2022-11-20T17:11:37;100247.19;;;1.18;84.23
56420;BME280;42323;52.170;7.538;2022-11-20T17:14:04;100246.13;;;1.21;84.68
56420;BME280;42323;52.170;7.538;2022-11-20T17:16:34;100243.66;;;1.19;84.04
56420;BME280;42323;52.170;7.538;2022-11-20T17:19:02;100243.66;;;1.19;84.17
56420;BME280;42323;52.170;7.538;2022-11-20T17:21:32;100237.69;;;1.19;84.65
56420;BME280;42323;52.170;7.538;2022-11-20T17:24:03;100228.41;;;1.16;84.40
56420;BME280;42323;52.170;7.538;2022-11-20T17:26:30;100224.91;;;1.17;85.02
56420;BME280;42323;52.170;7.538;2022-11-20T17:29:06;100208.44;;;1.09;84.83
56420;BME280;42323;52.170;7.538;2022-11-20T17:31:33;100215.66;;;1.15;84.56
56420;BME280;42323;52.170;7.538;2022-11-20T17:34:07;100186.22;;;0.96;84.29
56420;BME280;42323;52.170;7.538;2022-11-20T17:36:37;100210.06;;;1.10;84.83
56420;BME280;42323;52.170;7.538;2022-11-20T17:39:14;100209.13;;;1.11;84.89
56420;BME280;42323;52.170;7.538;2022-11-20T17:41:42;100204.19;;;1.08;84.80
56420;BME280;42323;52.170;7.538;2022-11-20T17:44:09;100205.97;;;1.07;84.68
56420;BME280;42323;52.170;7.538;2022-11-20T17:46:37;100213.47;;;1.10;84.73
56420;BME280;42323;52.170;7.538;2022-11-20T17:49:04;100212.88;;;1.07;84.73
56420;BME280;42323;52.170;7.538;2022-11-20T17:51:32;100202.38;;;0.98;84.13
56420;BME280;42323;52.170;7.538;2022-11-20T17:54:02;100215.03;;;1.02;84.81
56420;BME280;42323;52.170;7.538;2022-11-20T17:56:34;100211.56;;;0.91;84.80
56420;BME280;42323;52.170;7.538;2022-11-20T17:59:20;100211.00;;;0.88;85.13
56420;BME280;42323;52.170;7.538;2022-11-20T18:01:47;100197.31;;;0.76;85.18
56420;BME280;42323;52.170;7.538;2022-11-20T18:04:17;100199.91;;;0.76;85.03
56420;BME280;42323;52.170;7.538;2022-11-20T18:06:46;100182.53;;;0.57;85.48
56420;BME280;42323;52.170;7.538;2022-11-20T18:11:53;100201.69;;;0.64;85.71
56420;BME280;42323;52.170;7.538;2022-11-20T18:17:05;100164.34;;;0.27;86.24
56420;BME280;42323;52.170;7.538;2022-11-20T18:19:36;100199.63;;;0.47;86.46
56420;BME280;42323;52.170;7.538;2022-11-20T18:30:19;100136.41;;;-0.01;87.38
56420;BME280;42323;52.170;7.538;2022-11-20T18:32:46;100138.53;;;0.06;87.91
56420;BME280;42323;52.170;7.538;2022-11-20T18:37:48;100158.84;;;0.20;87.86
56420;BME280;42323;52.170;7.538;2022-11-20T18:40:15;100104.25;;;-0.17;88.24
56420;BME280;42323;52.170;7.538;2022-11-20T18:42:43;100098.09;;;-0.26;87.93
56420;BME280;42323;52.170;7.538;2022-11-20T18:45:29;100160.97;;;0.15;88.31
56420;BME280;42323;52.170;7.538;2022-11-20T18:47:56;100154.31;;;0.12;88.61
56420;BME280;42323;52.170;7.538;2022-11-20T18:50:22;100134.78;;;-0.02;89.28
56420;BME280;42323;52.170;7.538;2022-11-20T18:52:49;100131.03;;;0.03;89.32
56420;BME280;42323;52.170;7.538;2022-11-20T18:55:16;100108.00;;;-0.10;88.99
56420;BME280;42323;52.170;7.538;2022-11-20T18:57:43;100108.81;;;-0.10;89.33
56420;BME280;42323;52.170;7.538;2022-11-20T19:00:10;100129.19;;;0.05;89.41
56420;BME280;42323;52.170;7.538;2022-11-20T19:02:38;100124.72;;;0.07;90.01
56420;BME280;42323;52.170;7.538;2022-11-20T19:05:12;100108.09;;;-0.01;90.06
56420;BME280;42323;52.170;7.538;2022-11-20T19:07:40;100095.34;;;-0.02;90.37
56420;BME280;42323;52.170;7.538;2022-11-20T19:10:08;100097.34;;;-0.06;90.29
56420;BME280;42323;52.170;7.538;2022-11-20T19:12:35;100103.06;;;-0.02;90.18
56420;BME280;42323;52.170;7.538;2022-11-20T19:15:03;100114.63;;;0.04;90.93
56420;BME280;42323;52.170;7.538;2022-11-20T19:17:32;100108.56;;;0.05;90.98
56420;BME280;42323;52.170;7.538;2022-11-20T19:19:58;100088.56;;;-0.03;91.09
56420;BME280;42323;52.170;7.538;2022-11-20T19:22:25;100098.28;;;0.05;91.45
56420;BME280;42323;52.170;7.538;2022-11-20T19:24:52;100095.94;;;0.02;91.30
56420;BME280;42323;52.170;7.538;2022-11-20T19:27:18;100084.25;;;-0.03;91.10
56420;BME280;42323;52.170;7.538;2022-11-20T19:29:45;100088.34;;;0.00;91.26
56420;BME280;42323;52.170;7.538;2022-11-20T19:32:12;100078.16;;;-0.02;91.45
56420;BME280;42323;52.170;7.538;2022-11-20T19:34:38;100080.25;;;0.05;91.49
56420;BME280;42323;52.170;7.538;2022-11-20T19:37:05;100062.38;;;-0.08;91.54
56420;BME280;42323;52.170;7.538;2022-11-20T19:39:32;100076.00;;;0.04;91.26
56420;BME280;42323;52.170;7.538;2022-11-20T19:42:00;100072.19;;;-0.02;92.06
56420;BME280;42323;52.170;7.538;2022-11-20T19:44:28;100072.03;;;-0.01;91.80
56420;BME280;42323;52.170;7.538;2022-11-20T19:46:54;100064.81;;;-0.07;91.57
56420;BME280;42323;52.170;7.538;2022-11-20T19:49:22;100051.38;;;-0.10;91.92
56420;BME280;42323;52.170;7.538;2022-11-20T19:51:49;100042.03;;;-0.11;92.22
56420;BME280;42323;52.170;7.538;2022-11-20T19:54:16;100045.16;;;-0.08;91.93
56420;BME280;42323;52.170;7.538;2022-11-20T19:56:43;100047.97;;;-0.11;92.95
56420;BME280;42323;52.170;7.538;2022-11-20T19:59:15;100047.03;;;-0.10;92.31
56420;BME280;42323;52.170;7.538;2022-11-20T20:01:42;100041.88;;;-0.10;92.37
56420;BME280;42323;52.170;7.538;2022-11-20T20:04:12;100037.56;;;-0.09;92.45
56420;BME280;42323;52.170;7.538;2022-11-20T20:06:39;100026.94;;;-0.16;92.51
56420;BME280;42323;52.170;7.538;2022-11-20T20:09:09;100037.31;;;-0.06;92.66
56420;BME280;42323;52.170;7.538;2022-11-20T20:11:38;100032.53;;;-0.11;92.46
56420;BME280;42323;52.170;7.538;2022-11-20T20:14:11;100033.78;;;-0.05;92.49
56420;BME280;42323;52.170;7.538;2022-11-20T20:16:41;100024.22;;;-0.14;92.68
56420;BME280;42323;52.170;7.538;2022-11-20T20:19:15;100027.38;;;-0.11;92.86
56420;BME280;42323;52.170;7.538;2022-11-20T20:21:43;100028.19;;;-0.10;92.69
56420;BME280;42323;52.170;7.538;2022-11-20T20:24:10;100021.28;;;-0.10;92.66
56420;BME280;42323;52.170;7.538;2022-11-20T20:26:37;100027.16;;;-0.08;92.89
56420;BME280;42323;52.170;7.538;2022-11-20T20:29:04;100032.03;;;-0.05;92.75
56420;BME280;42323;52.170;7.538;2022-11-20T20:31:31;100007.97;;;-0.15;93.23
56420;BME280;42323;52.170;7.538;2022-11-20T20:34:02;100032.16;;;-0.06;93.23
56420;BME280;42323;52.170;7.538;2022-11-20T20:36:31;100023.63;;;-0.07;92.93
56420;BME280;42323;52.170;7.538;2022-11-20T20:38:58;100015.19;;;-0.09;92.87
56420;BME280;42323;52.170;7.538;2022-11-20T20:41:26;100008.91;;;-0.16;92.77
56420;BME280;42323;52.170;7.538;2022-11-20T20:43:53;100010.78;;;-0.18;93.09
56420;BME280;42323;52.170;7.538;2022-11-20T20:46:39;100013.13;;;-0.15;93.12
56420;BME280;42323;52.170;7.538;2022-11-20T20:49:07;100012.19;;;-0.14;93.44
56420;BME280;42323;52.170;7.538;2022-11-20T20:51:35;100005.41;;;-0.15;93.33
56420;BME280;42323;52.170;7.538;2022-11-20T20:54:02;100013.25;;;-0.16;93.53
56420;BME280;42323;52.170;7.538;2022-11-20T20:56:29;100000.38;;;-0.16;93.34
56420;BME280;42323;52.170;7.538;2022-11-20T20:58:56;99996.28;;;-0.19;93.34
56420;BME280;42323;52.170;7.538;2022-11-20T21:01:23;99954.63;;;-0.45;93.94
56420;BME280;42323;52.170;7.538;2022-11-20T21:03:55;99946.22;;;-0.47;93.46
56420;BME280;42323;52.170;7.538;2022-11-20T21:06:22;99977.50;;;-0.31;93.07
56420;BME280;42323;52.170;7.538;2022-11-20T21:08:49;99981.81;;;-0.31;93.22
56420;BME280;42323;52.170;7.538;2022-11-20T21:11:18;99987.88;;;-0.21;93.19
56420;BME280;42323;52.170;7.538;2022-11-20T21:13:46;100003.63;;;-0.14;93.64
56420;BME280;42323;52.170;7.538;2022-11-20T21:16:14;99995.47;;;-0.19;93.45
56420;BME280;42323;52.170;7.538;2022-11-20T21:18:42;99993.59;;;-0.17;93.86
56420;BME280;42323;52.170;7.538;2022-11-20T21:21:12;99987.88;;;-0.21;93.33
56420;BME280;42323;52.170;7.538;2022-11-20T21:23:58;99982.16;;;-0.24;93.68
56420;BME280;42323;52.170;7.538;2022-11-20T21:26:25;99986.69;;;-0.17;93.86
56420;BME280;42323;52.170;7.538;2022-11-20T21:28:52;99989.97;;;-0.15;93.71
56420;BME280;42323;52.170;7.538;2022-11-20T21:31:22;99981.66;;;-0.18;93.22
56420;BME280;42323;52.170;7.538;2022-11-20T21:33:51;100002.31;;;-0.09;93.88
56420;BME280;42323;52.170;7.538;2022-11-20T21:36:23;99985.03;;;-0.18;93.56